Time;durP1;ratioP1;P1;durP2;ratioP2;P2;SDS_P1;SDS_P2;PMS_P1;PMS_P2;Temp;Humidity;BMP_temperature;BMP_pressure;BME280_temperature;BME280_humidity;BME280_pressure;Samples;Min_cycle;Max_cycle;Signal;HPM_P1;HPM_P2
2022/11/25 00:00:20;;;;;;;;;65.50;51.00;;;;;7.20;63.65;98683.13;6189488;28;96521;-61
2022/11/25 00:03:23;;;;;;;;;67.80;50.00;;;;;7.23;63.80;98700.69;6178449;28;96364;-61
2022/11/25 00:06:30;;;;;;;;;62.00;48.00;;;;;7.27;63.74;98704.59;6189926;28;96285;-61
2022/11/25 00:09:33;;;;;;;;;61.80;47.80;;;;;7.34;63.46;98702.72;6189031;28;96288;-63
2022/11/25 00:12:38;;;;;;;;;68.40;51.40;;;;;7.36;63.35;98706.03;6190279;28;96306;-62
2022/11/25 00:15:43;;;;;;;;;64.00;50.00;;;;;7.32;63.21;98697.59;6189612;28;96525;-62
2022/11/25 00:18:48;;;;;;;;;64.80;49.80;;;;;7.37;63.26;98702.34;6187100;28;96543;-62
2022/11/25 00:21:51;;;;;;;;;65.60;50.00;;;;;7.40;63.14;98712.63;6189882;28;97151;-61
2022/11/25 00:24:54;;;;;;;;;65.40;50.40;;;;;7.36;63.27;98704.19;6187622;28;96288;-62
2022/11/25 00:27:58;;;;;;;;;61.40;48.60;;;;;7.32;63.41;98711.00;6189150;28;96374;-61
2022/11/25 00:31:07;;;;;;;;;62.20;48.80;;;;;7.37;63.36;98716.56;6190168;28;96937;-62
2022/11/25 00:34:13;;;;;;;;;60.25;46.00;;;;;7.43;63.01;98720.25;6172351;28;96865;-62
2022/11/25 00:37:16;;;;;;;;;60.40;48.00;;;;;7.47;63.13;98713.47;6187473;28;96443;-62
2022/11/25 00:40:20;;;;;;;;;56.60;45.00;;;;;7.58;62.91;98720.88;6189497;28;97491;-62
2022/11/25 00:46:46;;;;;;;;;59.40;47.20;;;;;7.68;62.53;98723.16;6189861;28;96456;-62
2022/11/25 00:49:50;;;;;;;;;62.00;48.00;;;;;7.69;62.19;98728.31;6168754;28;96239;-62
2022/11/25 00:52:54;;;;;;;;;62.00;48.00;;;;;7.70;62.29;98724.63;6198359;28;96815;-62
2022/11/25 00:56:13;;;;;;;;;57.00;46.00;;;;;7.76;62.20;98728.34;6178986;28;96547;-62
2022/11/25 00:59:16;;;;;;;;;61.80;48.00;;;;;7.81;61.97;98726.69;6177185;28;96281;-61
2022/11/25 01:02:21;;;;;;;;;60.80;49.00;;;;;7.69;62.11;98709.53;6186560;28;96434;-62
2022/11/25 01:05:25;;;;;;;;;58.40;46.80;;;;;7.87;61.69;98722.31;6169903;28;97235;-61
2022/11/25 01:08:29;;;;;;;;;55.60;44.00;;;;;7.77;61.64;98719.25;6186281;28;96474;-61
2022/11/25 01:11:34;;;;;;;;;58.00;46.60;;;;;7.85;61.64;98729.78;6191185;28;96297;-61
2022/11/25 01:14:37;;;;;;;;;58.20;45.80;;;;;7.90;61.64;98734.50;6170811;28;96739;-61
2022/11/25 01:17:42;;;;;;;;;60.60;46.00;;;;;7.95;61.52;98740.09;6183978;28;96247;-60
2022/11/25 01:20:47;;;;;;;;;58.00;45.20;;;;;7.97;61.35;98738.81;6154794;28;96256;-63
2022/11/25 01:23:51;;;;;;;;;58.00;46.00;;;;;8.00;61.60;98733.06;6174951;28;96492;-61
2022/11/25 01:26:55;;;;;;;;;57.00;45.25;;;;;8.01;61.32;98740.09;6195660;28;96385;-61
2022/11/25 01:29:58;;;;;;;;;55.80;45.60;;;;;7.98;61.11;98728.91;6162460;28;96626;-61
2022/11/25 01:33:03;;;;;;;;;56.40;44.00;;;;;7.95;61.09;98723.97;6156704;28;98297;-61
2022/11/25 01:36:09;;;;;;;;;56.60;46.00;;;;;8.01;60.80;98726.66;6170065;28;96730;-61
2022/11/25 01:39:17;;;;;;;;;60.00;48.00;;;;;8.01;61.00;98725.84;6188910;28;96974;-62
2022/11/25 01:42:21;;;;;;;;;62.20;48.40;;;;;8.06;60.93;98728.72;6189982;28;96321;-61
2022/11/25 01:45:34;;;;;;;;;62.25;48.50;;;;;8.06;60.78;98726.03;6178963;28;96598;-61
2022/11/25 01:48:45;;;;;;;;;61.40;47.60;;;;;8.14;60.72;98725.78;6173673;28;96197;-61
2022/11/25 01:51:54;;;;;;;;;55.25;43.00;;;;;8.14;60.68;98726.63;6188020;28;96874;-61
2022/11/25 01:55:01;;;;;;;;;57.00;44.00;;;;;8.18;60.64;98733.22;6188401;28;96588;-61
2022/11/25 01:58:07;;;;;;;;;58.00;45.60;;;;;8.22;60.58;98721.03;6181972;28;96377;-61
2022/11/25 02:01:11;;;;;;;;;55.00;44.00;;;;;8.23;60.60;98729.91;6187017;28;96443;-61
2022/11/25 02:04:19;;;;;;;;;56.00;44.00;;;;;8.21;60.47;98723.91;6164893;28;96586;-61
2022/11/25 02:07:31;;;;;;;;;54.80;44.80;;;;;8.23;60.47;98721.84;6185963;28;96778;-61
2022/11/25 02:10:35;;;;;;;;;51.50;42.00;;;;;8.23;60.58;98716.47;6169609;28;96596;-61
2022/11/25 02:13:39;;;;;;;;;49.25;40.00;;;;;8.26;60.49;98713.34;6185408;28;96257;-61
2022/11/25 02:16:43;;;;;;;;;55.00;44.00;;;;;8.27;60.39;98723.91;6180417;28;96357;-62
2022/11/25 02:19:58;;;;;;;;;54.75;44.00;;;;;8.30;60.37;98724.56;6182029;28;97132;-61
2022/11/25 02:23:14;;;;;;;;;55.00;42.00;;;;;8.32;60.17;98723.28;6170628;28;96524;-61
2022/11/25 02:26:22;;;;;;;;;50.00;40.00;;;;;8.32;60.08;98717.09;6170542;28;96485;-61
2022/11/25 02:29:26;;;;;;;;;51.00;41.75;;;;;8.34;60.46;98726.59;6170715;28;96779;-61
2022/11/25 02:32:30;;;;;;;;;49.00;40.00;;;;;8.34;60.13;98729.28;6182555;28;96350;-61
2022/11/25 02:35:37;;;;;;;;;51.25;41.25;;;;;8.37;60.12;98725.34;6173886;28;96778;-61
2022/11/25 02:38:45;;;;;;;;;50.80;41.40;;;;;8.37;60.05;98725.34;6171277;28;96699;-62
2022/11/25 02:41:56;;;;;;;;;48.50;39.50;;;;;8.37;59.96;98723.50;6177706;28;96427;-60
2022/11/25 02:44:59;;;;;;;;;49.60;39.00;;;;;8.35;59.91;98714.84;6168383;28;96301;-61
2022/11/25 02:48:02;;;;;;;;;55.40;44.00;;;;;8.37;59.99;98722.66;6174150;28;96321;-62
2022/11/25 02:51:08;;;;;;;;;50.60;41.00;;;;;8.35;59.99;98722.06;6179057;28;96374;-61
2022/11/25 02:54:12;;;;;;;;;54.50;43.50;;;;;8.37;59.98;98722.66;6186224;28;96252;-62
2022/11/25 02:57:17;;;;;;;;;53.40;43.40;;;;;8.38;59.94;98730.53;6191051;28;96669;-62
2022/11/25 03:00:22;;;;;;;;;51.00;41.60;;;;;8.33;60.12;98726.81;6172377;28;96631;-62
2022/11/25 03:03:25;;;;;;;;;50.00;41.00;;;;;8.34;60.02;98734.66;6191686;28;96958;-61
2022/11/25 03:06:30;;;;;;;;;49.60;40.20;;;;;8.37;60.00;98728.03;6189621;28;96487;-61
2022/11/25 03:09:33;;;;;;;;;49.00;40.00;;;;;8.35;59.92;98711.31;6188610;28;97197;-61
2022/11/25 03:12:38;;;;;;;;;48.60;38.80;;;;;8.30;59.92;98722.69;6187715;28;96527;-61
2022/11/25 03:15:42;;;;;;;;;52.00;41.67;;;;;8.21;59.86;98722.03;6171301;28;96284;-61
2022/11/25 03:18:45;;;;;;;;;47.75;39.25;;;;;8.07;60.09;98723.13;6192221;28;96968;-61
2022/11/25 03:21:50;;;;;;;;;46.40;38.40;;;;;8.03;60.37;98716.53;6149461;28;96744;-61
2022/11/25 03:24:54;;;;;;;;;48.80;39.20;;;;;7.93;60.56;98721.50;6189814;28;97873;-61
2022/11/25 03:27:59;;;;;;;;;50.20;40.00;;;;;7.85;61.28;98729.78;6195440;28;96270;-61
2022/11/25 03:31:02;;;;;;;;;49.00;39.25;;;;;7.87;61.59;98732.25;6173339;28;96649;-61
2022/11/25 03:34:06;;;;;;;;;51.80;42.60;;;;;7.86;61.75;98735.97;6186441;28;96664;-61
2022/11/25 03:37:09;;;;;;;;;46.75;38.50;;;;;7.84;61.84;98736.16;6180734;28;96045;-60
2022/11/25 03:40:15;;;;;;;;;48.00;40.00;;;;;7.83;61.83;98738.03;6188737;28;96748;-60
2022/11/25 03:43:21;;;;;;;;;51.25;40.25;;;;;7.78;62.05;98745.03;6165184;28;96274;-60
2022/11/25 03:46:24;;;;;;;;;47.00;38.60;;;;;7.75;62.16;98745.47;6166325;28;96420;-60
2022/11/25 03:49:29;;;;;;;;;44.80;38.00;;;;;7.72;65.03;98745.88;6172773;28;96754;-62
2022/11/25 03:52:33;;;;;;;;;48.00;38.50;;;;;7.75;66.64;98750.81;6155012;28;96626;-62
2022/11/25 03:55:36;;;;;;;;;52.60;41.60;;;;;7.74;66.66;98751.84;6155038;28;97275;-62
2022/11/25 03:58:41;;;;;;;;;52.60;41.80;;;;;7.75;66.38;98756.19;6169154;28;97236;-62
2022/11/25 04:01:46;;;;;;;;;53.50;41.50;;;;;7.79;66.26;98750.22;6156058;28;98149;-62
2022/11/25 04:04:50;;;;;;;;;48.00;40.00;;;;;7.87;66.07;98753.72;6175745;28;96477;-60
2022/11/25 04:07:54;;;;;;;;;50.40;42.20;;;;;7.92;65.75;98757.41;6171318;28;96434;-62
2022/11/25 04:11:01;;;;;;;;;49.60;40.00;;;;;7.96;65.12;98757.84;6170354;28;98191;-60
2022/11/25 04:14:08;;;;;;;;;49.80;40.00;;;;;8.04;64.76;98761.13;6192939;28;97047;-61
2022/11/25 04:17:11;;;;;;;;;50.60;40.80;;;;;8.06;64.43;98761.72;6169804;28;96632;-61
2022/11/25 04:20:15;;;;;;;;;48.40;38.60;;;;;8.14;64.07;98763.38;6173825;28;97042;-61
2022/11/25 04:23:24;;;;;;;;;51.75;42.75;;;;;8.18;63.70;98762.75;6178815;28;96356;-61
2022/11/25 04:26:35;;;;;;;;;49.60;40.60;;;;;8.22;63.17;98768.53;6193339;28;96913;-61
2022/11/25 04:29:40;;;;;;;;;47.60;38.60;;;;;8.26;62.96;98775.13;6197732;28;96394;-61
2022/11/25 04:32:45;;;;;;;;;43.00;35.00;;;;;8.22;62.94;98769.34;6173254;28;97598;-61
2022/11/25 04:35:49;;;;;;;;;44.80;36.00;;;;;8.28;63.01;98767.69;6159219;28;96960;-61
2022/11/25 04:38:55;;;;;;;;;43.00;36.00;;;;;8.25;62.73;98773.50;6189537;28;96443;-61
2022/11/25 04:45:18;;;;;;;;;42.40;35.40;;;;;8.07;62.68;98776.81;6171764;28;96369;-61
2022/11/25 04:48:28;;;;;;;;;41.00;35.00;;;;;8.04;62.85;98774.56;6170105;28;96330;-61
2022/11/25 04:51:31;;;;;;;;;37.00;32.00;;;;;8.08;62.93;98781.16;6187079;28;96367;-61
2022/11/25 04:54:38;;;;;;;;;37.20;32.00;;;;;7.71;62.91;98718.22;6171140;28;96669;-62
2022/11/25 04:57:42;;;;;;;;;38.00;33.00;;;;;8.13;63.02;98786.72;6159384;28;96372;-61
2022/11/25 05:00:48;;;;;;;;;38.00;32.00;;;;;8.19;62.82;98790.44;6152777;28;97302;-61
2022/11/25 05:03:53;;;;;;;;;45.00;37.20;;;;;8.23;62.86;98795.19;6158619;28;98861;-61
2022/11/25 05:07:01;;;;;;;;;38.40;33.00;;;;;8.30;62.55;98792.53;6176346;28;97002;-61
2022/11/25 05:10:06;;;;;;;;;35.20;32.00;;;;;8.32;62.67;98803.88;6168043;28;96464;-61
2022/11/25 05:13:13;;;;;;;;;36.20;32.40;;;;;8.30;62.76;98800.59;6171836;28;97090;-61
2022/11/25 05:16:18;;;;;;;;;38.80;32.40;;;;;8.32;62.57;98803.88;6174264;28;96673;-61
2022/11/25 05:19:21;;;;;;;;;37.80;32.20;;;;;8.40;62.59;98813.59;6192101;28;96270;-61
2022/11/25 05:22:27;;;;;;;;;38.50;33.00;;;;;8.39;62.44;98812.75;6171865;28;96647;-61
2022/11/25 05:25:31;;;;;;;;;43.60;35.00;;;;;8.39;62.61;98812.75;6172187;28;96354;-61
2022/11/25 05:28:53;;;;;;;;;43.60;36.00;;;;;8.41;62.69;98813.34;6157012;28;98435;-61
2022/11/25 05:31:58;;;;;;;;;40.40;33.80;;;;;8.40;62.73;98811.72;6169555;28;96845;-62
2022/11/25 05:35:01;;;;;;;;;41.60;35.00;;;;;8.38;62.78;98813.78;6167125;28;97594;-62
2022/11/25 05:38:05;;;;;;;;;45.00;36.33;;;;;8.42;62.66;98817.69;6168120;28;97035;-61
2022/11/25 05:41:10;;;;;;;;;48.60;38.80;;;;;8.44;62.52;98815.66;6168544;28;96814;-61
2022/11/25 05:44:16;;;;;;;;;49.00;40.00;;;;;8.44;62.47;98817.50;6148587;28;96645;-62
2022/11/25 05:47:27;;;;;;;;;50.80;41.00;;;;;8.37;63.15;98822.06;6186817;28;96182;-62
2022/11/25 05:50:31;;;;;;;;;50.40;42.00;;;;;8.37;63.34;98832.78;6173561;28;97063;-62
2022/11/25 05:53:55;;;;;;;;;50.00;39.20;;;;;8.39;63.39;98830.75;6173785;28;96516;-62
2022/11/25 05:57:03;;;;;;;;;55.80;44.00;;;;;8.38;63.72;98840.66;6166339;28;96922;-62
2022/11/25 06:00:21;;;;;;;;;48.00;39.50;;;;;8.43;63.74;98842.72;6168543;28;96909;-62
2022/11/25 06:03:30;;;;;;;;;49.00;40.20;;;;;8.44;63.98;98847.06;6159836;28;99062;-62
2022/11/25 06:06:35;;;;;;;;;50.60;40.60;;;;;8.44;63.93;98847.88;6170197;28;96925;-62
2022/11/25 06:09:38;;;;;;;;;51.40;41.40;;;;;8.45;63.84;98846.03;6190131;28;96374;-61
2022/11/25 06:12:42;;;;;;;;;54.20;44.00;;;;;8.57;63.66;98852.41;6186955;28;96355;-61
2022/11/25 06:15:46;;;;;;;;;45.40;38.20;;;;;8.64;63.61;98853.22;6169493;28;97083;-61
2022/11/25 06:18:54;;;;;;;;;52.80;42.80;;;;;8.49;63.31;98823.91;6166249;28;96351;-61
2022/11/25 06:21:57;;;;;;;;;50.67;41.67;;;;;8.72;63.16;98861.06;6167263;28;96728;-61
2022/11/25 06:25:02;;;;;;;;;53.20;42.40;;;;;8.75;63.13;98860.63;6159236;28;96750;-61
2022/11/25 06:28:08;;;;;;;;;56.20;44.60;;;;;8.77;63.05;98863.94;6170108;28;97454;-61
2022/11/25 06:31:21;;;;;;;;;57.25;43.25;;;;;8.81;62.98;98858.94;6171235;28;96939;-61
2022/11/25 06:34:49;;;;;;;;;55.75;42.25;;;;;8.78;63.00;98862.06;6151024;28;96663;-62
2022/11/25 06:38:08;;;;;;;;;55.75;45.00;;;;;8.76;63.10;98864.97;6179462;28;97137;-62
2022/11/25 06:41:12;;;;;;;;;58.20;46.80;;;;;8.80;63.06;98866.19;6168611;28;96753;-62
2022/11/25 06:44:16;;;;;;;;;56.25;44.00;;;;;8.83;63.15;98865.78;6179631;28;96636;-62
2022/11/25 06:47:19;;;;;;;;;53.00;43.00;;;;;8.78;63.05;98859.38;6171760;28;96489;-62
2022/11/25 06:50:24;;;;;;;;;56.00;44.00;;;;;8.88;63.13;98868.66;6166328;28;96998;-63
2022/11/25 06:53:27;;;;;;;;;56.75;45.00;;;;;8.88;63.11;98870.53;6164699;28;96789;-62
2022/11/25 06:56:31;;;;;;;;;53.25;44.00;;;;;8.92;62.96;98875.28;6167609;28;96728;-62
2022/11/25 06:59:35;;;;;;;;;58.00;44.00;;;;;8.96;62.78;98873.81;6185486;28;96909;-62
2022/11/25 07:02:38;;;;;;;;;62.25;49.00;;;;;8.97;62.88;98878.16;6168732;28;96394;-61
2022/11/25 07:05:50;;;;;;;;;62.00;49.20;;;;;8.94;62.95;98872.38;6165692;28;97553;-61
2022/11/25 07:08:53;;;;;;;;;65.60;51.80;;;;;8.99;62.79;98875.25;6168006;28;96309;-61
2022/11/25 07:11:57;;;;;;;;;55.60;45.00;;;;;9.05;62.79;98882.47;6184067;28;96491;-61
2022/11/25 07:15:00;;;;;;;;;60.40;46.60;;;;;9.03;62.86;98877.31;6186150;28;96244;-62
2022/11/25 07:18:04;;;;;;;;;61.20;47.40;;;;;9.08;62.85;98882.88;6187525;28;96401;-61
2022/11/25 07:21:11;;;;;;;;;63.00;48.00;;;;;9.04;62.83;98880.84;6184387;28;96826;-61
2022/11/25 07:24:15;;;;;;;;;58.40;47.00;;;;;9.10;62.69;98875.41;6184432;28;96577;-62
2022/11/25 07:27:19;;;;;;;;;61.00;48.00;;;;;9.20;62.60;98884.88;6181058;28;96424;-61
2022/11/25 07:30:22;;;;;;;;;59.60;46.60;;;;;9.20;62.71;98888.41;6196624;28;96638;-61
2022/11/25 07:33:46;;;;;;;;;59.50;46.00;;;;;9.22;62.65;98886.34;6169832;28;97014;-61
2022/11/25 07:36:50;;;;;;;;;63.20;50.00;;;;;9.29;62.57;98884.44;6188481;28;96653;-61
2022/11/25 07:39:54;;;;;;;;;62.40;49.00;;;;;9.23;62.55;98871.03;6185567;28;97004;-62
2022/11/25 07:42:58;;;;;;;;;61.00;46.80;;;;;9.35;62.46;98901.59;6185865;28;100184;-62
2022/11/25 07:46:14;;;;;;;;;63.20;50.00;;;;;9.32;62.45;98885.88;6182763;28;96242;-62
2022/11/25 07:49:20;;;;;;;;;65.60;50.40;;;;;9.42;62.41;98894.34;6185129;28;97117;-61
2022/11/25 07:52:25;;;;;;;;;60.00;48.00;;;;;9.41;62.49;98898.06;6194791;28;96472;-61
2022/11/25 07:55:28;;;;;;;;;62.60;48.60;;;;;9.46;62.48;98899.06;6185772;28;96695;-62
2022/11/25 07:58:31;;;;;;;;;62.80;48.20;;;;;9.50;62.44;98908.34;6204822;28;96441;-62
2022/11/25 08:01:35;;;;;;;;;57.00;46.00;;;;;9.59;62.46;98911.63;6197280;28;96431;-61
2022/11/25 08:04:38;;;;;;;;;61.60;49.00;;;;;9.54;62.38;98917.66;6191713;28;96533;-61
2022/11/25 08:07:43;;;;;;;;;62.00;49.00;;;;;9.54;62.36;98919.50;6198465;28;96329;-61
2022/11/25 08:10:46;;;;;;;;;62.40;48.00;;;;;9.55;62.48;98924.69;6194738;28;97522;-61
2022/11/25 08:13:50;;;;;;;;;57.50;44.75;;;;;9.56;62.48;98925.53;6193926;28;96912;-63
2022/11/25 08:16:53;;;;;;;;;61.20;48.00;;;;;9.58;62.58;98926.13;6199672;28;97163;-62
2022/11/25 08:19:57;;;;;;;;;61.00;47.00;;;;;9.57;62.69;98925.31;6174291;28;96743;-62
2022/11/25 08:23:02;;;;;;;;;61.20;48.40;;;;;9.57;62.73;98922.63;6198254;28;96764;-62
2022/11/25 08:26:07;;;;;;;;;56.60;44.00;;;;;9.62;62.60;98924.69;6195517;28;97069;-61
2022/11/25 08:29:14;;;;;;;;;62.60;48.00;;;;;9.67;62.38;98924.03;6196311;28;97380;-61
2022/11/25 08:32:17;;;;;;;;;58.40;45.80;;;;;9.73;62.25;98932.03;6198868;28;97019;-61
2022/11/25 08:35:20;;;;;;;;;59.00;46.00;;;;;9.77;62.19;98932.47;6199634;28;96608;-62
2022/11/25 08:38:26;;;;;;;;;60.40;46.40;;;;;9.82;61.84;98933.44;6196023;28;96339;-62
2022/11/25 08:41:33;;;;;;;;;60.00;47.00;;;;;9.83;61.84;98939.66;6187660;28;96839;-62
2022/11/25 08:44:37;;;;;;;;;58.75;46.75;;;;;9.85;61.95;98937.59;6189987;28;96912;-63
2022/11/25 08:47:40;;;;;;;;;57.50;46.25;;;;;9.77;61.75;98924.38;6189982;28;96357;-62
2022/11/25 08:50:46;;;;;;;;;59.00;47.00;;;;;9.88;61.83;98940.66;6187317;28;96194;-63
2022/11/25 08:53:51;;;;;;;;;57.60;44.20;;;;;9.86;61.66;98941.94;6185316;28;96458;-63
2022/11/25 08:56:55;;;;;;;;;58.20;46.00;;;;;9.95;61.67;98944.16;6198873;28;96393;-62
2022/11/25 08:59:58;;;;;;;;;58.40;46.80;;;;;10.02;61.55;98943.31;6197292;28;96488;-62
2022/11/25 09:03:01;;;;;;;;;58.00;47.00;;;;;10.02;61.67;98951.38;6199181;28;96384;-62
2022/11/25 09:06:07;;;;;;;;;56.20;44.60;;;;;10.07;61.43;98944.28;6188940;28;96508;-61
2022/11/25 09:09:12;;;;;;;;;61.20;48.80;;;;;9.99;61.50;98945.38;6192130;28;96564;-63
2022/11/25 09:12:16;;;;;;;;;57.80;46.20;;;;;10.08;61.66;98954.00;6198439;28;96462;-62
2022/11/25 09:15:19;;;;;;;;;56.60;45.80;;;;;10.16;61.48;98956.50;6193077;28;96986;-61
2022/11/25 09:18:25;;;;;;;;;57.00;45.00;;;;;10.18;61.44;98959.78;6187378;28;96476;-61
2022/11/25 09:21:28;;;;;;;;;60.00;47.25;;;;;10.23;61.32;98962.66;6183010;28;96502;-60
2022/11/25 09:24:34;;;;;;;;;57.60;45.00;;;;;10.28;61.10;98962.84;6166934;28;96653;-63
2022/11/25 09:27:37;;;;;;;;;58.80;47.40;;;;;10.32;61.01;98961.34;6172636;28;96886;-63
2022/11/25 09:30:41;;;;;;;;;56.00;46.00;;;;;10.35;61.06;98958.22;6185511;28;96770;-62
2022/11/25 09:33:44;;;;;;;;;56.20;44.20;;;;;10.40;61.13;98960.28;6189018;28;96929;-61
2022/11/25 09:36:47;;;;;;;;;57.60;46.00;;;;;10.50;60.83;98966.00;6186912;28;97356;-61
2022/11/25 09:39:54;;;;;;;;;61.40;47.60;;;;;10.52;60.38;98958.50;6186524;28;97136;-61
2022/11/25 09:46:54;;;;;;;;;53.60;43.80;;;;;10.58;60.33;98959.50;6177997;28;98314;-61
2022/11/25 09:50:09;;;;;;;;;57.80;46.00;;;;;10.56;60.39;98958.88;6180741;28;96480;-62
2022/11/25 09:53:29;;;;;;;;;56.20;44.40;;;;;10.56;60.69;98961.56;6189497;28;96396;-61
2022/11/25 09:56:37;;;;;;;;;51.00;42.00;;;;;10.58;60.57;98954.94;6181280;28;97270;-62
2022/11/25 09:59:47;;;;;;;;;50.00;40.00;;;;;10.62;60.40;98961.53;6187430;28;96399;-62
2022/11/25 10:03:03;;;;;;;;;49.00;39.00;;;;;10.60;59.96;98957.41;6187626;28;97602;-62
2022/11/25 10:06:13;;;;;;;;;51.40;41.00;;;;;10.67;60.01;98960.88;6184881;28;96334;-61
2022/11/25 10:09:23;;;;;;;;;53.50;42.25;;;;;10.72;59.95;98961.03;6187705;28;96602;-61
2022/11/25 10:12:33;;;;;;;;;52.00;41.40;;;;;10.75;60.27;98966.81;6160461;28;97053;-61
2022/11/25 10:15:43;;;;;;;;;51.00;41.00;;;;;10.81;60.19;98970.50;6148608;28;96702;-61
2022/11/25 10:18:56;;;;;;;;;49.80;40.80;;;;;10.78;59.74;98957.47;6165811;28;96379;-61
2022/11/25 10:22:01;;;;;;;;;51.40;41.00;;;;;10.84;59.92;98962.81;6168745;28;96535;-62
2022/11/25 10:25:14;;;;;;;;;49.80;40.40;;;;;10.91;59.71;98967.28;6163673;28;97415;-61
2022/11/25 10:28:21;;;;;;;;;55.20;42.40;;;;;10.94;59.76;98969.56;6177766;28;97213;-61
2022/11/25 10:31:32;;;;;;;;;56.60;44.00;;;;;10.93;59.52;98966.03;6172095;28;96534;-64
2022/11/25 10:34:40;;;;;;;;;53.50;42.00;;;;;10.87;59.89;98972.31;6169834;28;96479;-61
2022/11/25 10:37:45;;;;;;;;;55.00;44.00;;;;;10.88;60.01;98973.97;6172102;28;96904;-61
2022/11/25 10:40:52;;;;;;;;;58.50;45.00;;;;;10.89;59.96;98975.63;6163652;28;96543;-62
2022/11/25 10:43:57;;;;;;;;;52.50;42.50;;;;;10.87;60.22;98966.91;6169264;28;96515;-62
2022/11/25 10:47:18;;;;;;;;;55.40;44.00;;;;;10.82;60.38;98974.84;6171680;28;96575;-62
2022/11/25 10:50:30;;;;;;;;;57.80;45.00;;;;;10.87;60.49;98972.31;6171054;28;96787;-61
2022/11/25 10:53:33;;;;;;;;;59.00;46.00;;;;;10.94;60.40;98978.50;6169443;28;97048;-62
2022/11/25 10:56:45;;;;;;;;;59.80;45.80;;;;;10.98;60.15;98966.19;6170505;28;97079;-62
2022/11/25 10:59:57;;;;;;;;;59.40;46.00;;;;;11.08;60.13;98974.63;6167345;28;96474;-61
2022/11/25 11:03:14;;;;;;;;;61.00;45.50;;;;;11.06;60.13;98982.09;6170667;28;97040;-62
2022/11/25 11:06:32;;;;;;;;;60.60;44.60;;;;;11.10;60.14;98977.91;6170043;28;97860;-60
2022/11/25 11:09:37;;;;;;;;;60.75;48.25;;;;;11.09;60.08;98975.44;6172821;28;96582;-61
2022/11/25 11:12:54;;;;;;;;;61.25;47.75;;;;;11.09;59.85;98965.44;6178428;28;96981;-61
2022/11/25 11:15:59;;;;;;;;;58.40;46.00;;;;;10.99;60.07;98970.56;6177493;28;97809;-61
2022/11/25 11:19:04;;;;;;;;;59.40;46.20;;;;;11.04;60.42;98975.28;6154964;28;96700;-62
2022/11/25 11:22:25;;;;;;;;;59.60;46.00;;;;;11.03;60.96;98974.44;6167315;28;96649;-62
2022/11/25 11:25:31;;;;;;;;;57.20;44.80;;;;;11.03;60.91;98977.16;6193971;28;96569;-63
2022/11/25 11:28:40;;;;;;;;;56.80;46.00;;;;;11.04;60.88;98968.00;6175371;28;96859;-62
2022/11/25 11:31:48;;;;;;;;;60.00;46.00;;;;;11.11;60.87;98970.63;6177883;28;96673;-61
2022/11/25 11:35:03;;;;;;;;;64.50;50.75;;;;;11.15;60.73;98961.88;6172520;28;97241;-62
2022/11/25 11:38:18;;;;;;;;;62.20;46.80;;;;;11.26;61.04;98971.09;6165969;28;96693;-62
2022/11/25 11:41:35;;;;;;;;;62.80;48.20;;;;;11.35;60.54;98971.63;6174894;28;96715;-63
2022/11/25 11:44:55;;;;;;;;;62.00;48.00;;;;;11.42;60.36;98978.63;6180167;28;96894;-62
2022/11/25 11:48:12;;;;;;;;;62.00;48.20;;;;;11.49;60.11;98970.41;6181078;28;97075;-61
2022/11/25 11:51:24;;;;;;;;;62.00;48.00;;;;;11.49;60.34;98978.50;6170702;28;96425;-62
2022/11/25 11:54:35;;;;;;;;;62.25;48.25;;;;;11.48;60.52;98982.28;6185034;28;96742;-61
2022/11/25 11:57:49;;;;;;;;;58.67;47.00;;;;;11.49;60.42;98978.50;6183115;28;96749;-62
2022/11/25 12:01:02;;;;;;;;;61.40;47.40;;;;;11.53;60.63;98985.94;6186451;28;97085;-64
2022/11/25 12:04:17;;;;;;;;;62.00;48.00;;;;;11.61;60.64;98980.25;6182599;28;96598;-62
2022/11/25 12:07:28;;;;;;;;;60.75;47.75;;;;;11.68;60.01;98977.44;6163790;28;97045;-61
2022/11/25 12:10:36;;;;;;;;;63.60;48.20;;;;;11.70;59.62;98989.69;6162091;28;96394;-61
2022/11/25 12:13:47;;;;;;;;;64.00;50.00;;;;;11.74;59.82;98984.69;6164277;28;97346;-61
2022/11/25 12:16:55;;;;;;;;;64.80;50.00;;;;;11.80;59.75;98982.97;6170899;28;97185;-62
2022/11/25 12:20:06;;;;;;;;;65.25;49.75;;;;;11.84;59.67;98987.69;6168229;28;98750;-62
2022/11/25 12:23:17;;;;;;;;;63.00;50.00;;;;;11.81;59.60;98992.72;6164814;28;96389;-62
2022/11/25 12:26:28;;;;;;;;;62.50;49.00;;;;;11.87;59.72;98992.66;6165964;28;96417;-62
2022/11/25 12:29:39;;;;;;;;;61.00;48.00;;;;;11.92;59.58;98997.38;6160750;28;97128;-62
2022/11/25 12:32:57;;;;;;;;;62.75;49.75;;;;;11.97;59.33;98992.09;6163122;28;97880;-62
2022/11/25 12:36:05;;;;;;;;;62.00;48.00;;;;;11.99;59.16;98993.50;6164821;28;97457;-63
2022/11/25 12:39:20;;;;;;;;;61.20;47.20;;;;;11.97;59.23;98998.31;6158463;28;96882;-63
2022/11/25 12:42:25;;;;;;;;;60.00;47.00;;;;;12.01;59.07;98998.69;6171851;28;96567;-62
2022/11/25 12:45:28;;;;;;;;;59.80;48.00;;;;;12.02;58.86;98993.03;6164990;28;96425;-62
2022/11/25 12:48:32;;;;;;;;;56.60;45.00;;;;;12.02;58.87;98995.75;6170030;28;96685;-62
2022/11/25 12:52:11;;;;;;;;;56.20;44.20;;;;;12.04;58.73;98998.22;6165347;28;96795;-62
2022/11/25 12:55:17;;;;;;;;;55.00;44.00;;;;;11.96;58.92;98985.03;6164482;28;96535;-62
2022/11/25 12:58:45;;;;;;;;;57.00;44.20;;;;;11.87;58.93;98995.34;6168081;28;96664;-62
2022/11/25 13:02:00;;;;;;;;;56.25;45.00;;;;;11.83;59.70;98990.59;6163165;28;96662;-63
2022/11/25 13:05:26;;;;;;;;;54.60;44.00;;;;;11.77;59.51;98995.06;6174169;28;96727;-61
2022/11/25 13:08:56;;;;;;;;;54.80;43.80;;;;;11.81;59.75;98998.13;6165273;28;96926;-62
2022/11/25 13:12:12;;;;;;;;;57.00;44.40;;;;;11.76;59.47;98995.28;6171745;28;96545;-62
2022/11/25 13:15:27;;;;;;;;;55.40;44.00;;;;;11.80;59.56;98997.28;6147225;28;96628;-62
2022/11/25 13:18:34;;;;;;;;;58.40;46.00;;;;;11.77;59.75;98997.75;6180096;28;96583;-62
2022/11/25 13:21:54;;;;;;;;;55.00;44.00;;;;;11.70;59.60;99005.06;6179028;28;96898;-62
2022/11/25 13:24:59;;;;;;;;;56.40;43.00;;;;;11.65;60.11;99011.16;6175391;28;96760;-61
2022/11/25 13:28:06;;;;;;;;;52.50;43.00;;;;;11.55;60.05;98991.13;6155404;28;96493;-61
2022/11/25 13:31:21;;;;;;;;;53.60;42.40;;;;;11.64;60.36;99009.50;6175661;28;97596;-61
2022/11/25 13:34:28;;;;;;;;;54.75;43.75;;;;;11.66;59.89;99010.09;6171978;28;96673;-61
2022/11/25 13:37:36;;;;;;;;;52.00;41.60;;;;;11.63;60.06;99007.03;6182524;28;97172;-61
2022/11/25 13:40:41;;;;;;;;;55.40;42.80;;;;;11.62;60.28;99008.09;6181734;28;96447;-61
2022/11/25 13:43:56;;;;;;;;;51.75;42.00;;;;;11.63;60.32;99010.53;6182210;28;96286;-62
2022/11/25 13:47:30;;;;;;;;;54.00;42.60;;;;;11.63;60.24;99012.44;6182189;28;97819;-62
2022/11/25 13:50:34;;;;;;;;;49.00;41.00;;;;;11.68;60.03;99012.56;6181530;28;97196;-63
2022/11/25 13:54:01;;;;;;;;;50.80;41.40;;;;;11.69;60.04;99012.34;6178590;28;96742;-62
2022/11/25 13:57:27;;;;;;;;;53.40;41.40;;;;;11.69;60.22;99015.03;6164512;28;96714;-62
2022/11/25 14:01:05;;;;;;;;;55.40;43.00;;;;;11.71;60.38;99022.94;6182402;28;96944;-63
2022/11/25 14:04:12;;;;;;;;;54.00;42.00;;;;;11.70;60.36;99015.88;6164238;28;96713;-63
2022/11/25 14:07:29;;;;;;;;;53.00;43.00;;;;;11.54;60.37;99006.50;6164568;28;96517;-61
2022/11/25 14:10:44;;;;;;;;;53.00;42.00;;;;;11.63;60.52;99015.16;6181003;28;96717;-64
2022/11/25 14:14:18;;;;;;;;;50.00;39.80;;;;;11.55;60.73;99021.66;6184244;28;96580;-62
2022/11/25 14:17:40;;;;;;;;;51.80;41.00;;;;;11.51;61.03;99023.16;6184019;28;96503;-61
2022/11/25 14:20:50;;;;;;;;;50.00;40.50;;;;;11.49;61.34;99019.84;6185363;28;96410;-61
2022/11/25 14:24:06;;;;;;;;;51.60;41.60;;;;;11.49;61.24;99014.44;6184412;28;96652;-62
2022/11/25 14:27:15;;;;;;;;;53.00;42.00;;;;;11.46;61.07;99020.31;6184076;28;99578;-61
2022/11/25 14:30:20;;;;;;;;;49.00;40.00;;;;;11.45;61.06;99028.63;6184725;28;96355;-62
2022/11/25 14:33:31;;;;;;;;;52.40;43.40;;;;;11.45;61.25;99025.91;6190357;28;96504;-61
2022/11/25 14:36:41;;;;;;;;;51.25;41.75;;;;;11.42;61.21;99024.50;6182042;28;96376;-61
2022/11/25 14:39:52;;;;;;;;;50.50;41.00;;;;;11.39;61.38;99027.63;6179788;28;97245;-61